Time;durP1;ratioP1;P1;durP2;ratioP2;P2;SDS_P1;SDS_P2;PMS_P1;PMS_P2;Temp;Humidity;BMP_temperature;BMP_pressure;BME280_temperature;BME280_humidity;BME280_pressure;Samples;Min_cycle;Max_cycle;Signal;HPM_P1;HPM_P2
2023/03/30 00:01:19;;;;;;;9.50;3.47;;;;;;;-145.18;100.00;46656.50;6182696;23;20009;-68
2023/03/30 00:03:45;;;;;;;9.33;2.50;;;;;;;-145.18;100.00;46662.34;6156601;23;20478;-68
2023/03/30 00:06:13;;;;;;;6.53;2.90;;;;;;;-145.18;100.00;46664.31;6182586;23;20016;-68
2023/03/30 00:08:39;;;;;;;10.87;3.40;;;;;;;-145.18;100.00;46654.53;6182877;23;20076;-68
2023/03/30 00:11:07;;;;;;;6.73;2.33;;;;;;;-145.18;100.00;46654.53;6183226;23;20029;-68
2023/03/30 00:13:34;;;;;;;5.00;2.20;;;;;;;-145.18;100.00;46672.13;6182755;23;20600;-68
2023/03/30 00:16:00;;;;;;;7.47;2.20;;;;;;;-145.18;100.00;46672.13;6183059;23;20005;-68
2023/03/30 00:18:25;;;;;;;5.40;2.33;;;;;;;-145.18;100.00;46681.88;6182628;23;20009;-69
2023/03/30 00:20:52;;;;;;;4.00;1.97;;;;;;;-145.18;100.00;46689.69;6156604;23;20009;-69
2023/03/30 00:23:18;;;;;;;4.73;2.07;;;;;;;-145.18;100.00;46705.31;6182475;23;20047;-68
2023/03/30 00:25:44;;;;;;;8.60;2.93;;;;;;;-145.18;100.00;46691.66;6183035;23;20092;-68
2023/03/30 00:28:09;;;;;;;7.40;2.30;;;;;;;-145.18;100.00;46687.75;6183090;23;20040;-68
2023/03/30 00:30:35;;;;;;;5.03;1.93;;;;;;;-145.18;100.00;46699.47;6182194;23;20509;-68
2023/03/30 00:33:01;;;;;;;8.33;2.20;;;;;;;-145.18;100.00;46711.19;6182606;23;20009;-68
2023/03/30 00:35:29;;;;;;;6.17;2.00;;;;;;;-145.18;100.00;46734.63;6182850;23;20427;-68
2023/03/30 00:38:00;;;;;;;7.00;1.77;;;;;;;-145.18;100.00;46775.66;6182874;23;20028;-68
2023/03/30 00:40:26;;;;;;;7.03;2.57;;;;;;;-145.18;100.00;46791.28;6182501;23;20005;-69
2023/03/30 00:42:58;;;;;;;6.20;2.33;;;;;;;-145.18;100.00;46803.00;6182448;23;20390;-68
2023/03/30 00:45:26;;;;;;;3.53;1.67;;;;;;;-145.18;100.00;46830.34;6156261;23;20009;-68
2023/03/30 00:47:58;;;;;;;4.90;1.63;;;;;;;-145.18;100.00;46824.47;6182830;23;20365;-69
2023/03/30 00:50:33;;;;;;;9.53;1.90;;;;;;;-145.18;100.00;46824.47;6182861;23;20075;-68
2023/03/30 00:52:59;;;;;;;;;;;;;;;-145.18;100.00;46828.38;6182878;23;20327;-68
2023/03/30 00:55:30;;;;;;;4.45;1.80;;;;;;;-145.18;100.00;46847.91;6182418;23;19923;-68
2023/03/30 00:57:55;;;;;;;6.17;1.70;;;;;;;-145.18;100.00;46834.25;6182400;23;20005;-68
2023/03/30 01:00:22;;;;;;;6.97;1.80;;;;;;;-145.18;100.00;46824.47;6182461;23;20009;-68
2023/03/30 01:03:00;;;;;;;4.23;2.00;;;;;;;-145.18;100.00;46826.44;6182071;23;20052;-68
2023/03/30 01:05:27;;;;;;;5.27;1.80;;;;;;;-145.18;100.00;46840.09;6182064;23;20009;-68
2023/03/30 01:07:53;;;;;;;9.07;2.10;;;;;;;-145.18;100.00;46847.91;6182227;23;20406;-68
2023/03/30 01:10:19;;;;;;;4.10;1.93;;;;;;;-145.18;100.00;46836.19;6155619;23;20384;-68
2023/03/30 01:12:46;;;;;;;8.87;2.10;;;;;;;-145.18;100.00;46810.81;6182364;23;20009;-68
2023/03/30 01:15:11;;;;;;;6.67;1.83;;;;;;;-145.18;100.00;46803.00;6182449;23;20016;-68
2023/03/30 01:17:53;;;;;;;6.37;2.10;;;;;;;-145.18;100.00;46822.53;6181694;23;20009;-68
2023/03/30 01:20:52;;;;;;;6.23;2.20;;;;;;;-145.18;100.00;46801.03;6182483;23;20493;-68
2023/03/30 01:23:26;;;;;;;8.20;2.20;;;;;;;-145.18;100.00;46810.81;6181929;23;20005;-68
2023/03/30 01:26:03;;;;;;;8.83;2.40;;;;;;;-145.18;100.00;46840.09;6182604;23;20019;-68
2023/03/30 01:28:51;;;;;;;3.80;1.50;;;;;;;-145.18;100.00;46861.59;6181972;23;20059;-68
2023/03/30 01:31:26;;;;;;;8.80;1.90;;;;;;;-145.18;100.00;46908.47;6182245;23;20460;-68
2023/03/30 01:33:57;;;;;;;6.27;2.40;;;;;;;-145.18;100.00;47019.81;6182746;23;20013;-68
2023/03/30 01:37:00;;;;;;;5.30;1.87;;;;;;;-145.18;100.00;47105.78;6182009;23;20310;-68
2023/03/30 01:39:38;;;;;;;9.17;1.80;;;;;;;-145.18;100.00;47187.84;6106398;23;20371;-68
2023/03/30 01:42:19;;;;;;;4.13;1.43;;;;;;;-145.18;100.00;47209.31;6182110;23;20001;-68
2023/03/30 01:44:47;;;;;;;5.47;1.47;;;;;;;-145.18;100.00;47139.00;6182383;23;20094;-68
2023/03/30 01:47:49;;;;;;;5.70;1.67;;;;;;;-145.18;100.00;47105.78;6181613;23;20112;-68
2023/03/30 01:50:33;;;;;;;9.70;1.60;;;;;;;-145.18;100.00;47111.66;6182105;23;20008;-68
2023/03/30 01:53:09;;;;;;;6.53;1.77;;;;;;;-145.18;100.00;47049.13;6182210;23;20100;-68
2023/03/30 01:55:43;;;;;;;13.68;1.83;;;;;;;-145.18;100.00;46969.03;6181553;23;20074;-68
2023/03/30 01:58:31;;;;;;;5.17;1.70;;;;;;;-145.18;100.00;46928.00;6181921;23;20059;-68
2023/03/30 02:03:36;;;;;;;6.25;1.75;;;;;;;-145.18;100.00;46859.63;6149730;23;20109;-68
2023/03/30 02:06:09;;;;;;;10.07;1.27;;;;;;;-145.18;100.00;46832.28;6152271;23;20009;-68
2023/03/30 02:08:37;;;;;;;6.30;1.27;;;;;;;-145.18;100.00;46853.78;6152787;23;20044;-68
2023/03/30 02:11:02;;;;;;;3.37;1.30;;;;;;;-145.18;100.00;46814.72;6152390;23;20016;-68
2023/03/30 02:13:31;;;;;;;8.03;1.60;;;;;;;-145.18;100.00;46783.47;6152388;23;20009;-68
2023/03/30 02:16:08;;;;;;;3.57;1.60;;;;;;;-145.18;100.00;46789.31;6150909;23;20012;-68
2023/03/30 02:18:37;;;;;;;5.77;1.77;;;;;;;-145.18;100.00;46828.38;6152382;23;20006;-68
2023/03/30 02:21:02;;;;;;;7.50;1.60;;;;;;;-145.18;100.00;46773.69;6151966;23;20013;-68
2023/03/30 02:23:34;;;;;;;7.70;1.43;;;;;;;-145.18;100.00;46767.84;6152256;23;20124;-68
2023/03/30 02:26:00;;;;;;;11.17;1.60;;;;;;;-145.18;100.00;46773.69;6152370;23;20012;-68
2023/03/30 02:28:26;;;;;;;5.43;1.60;;;;;;;-145.18;100.00;46765.88;6152604;23;20016;-68
2023/03/30 02:30:51;;;;;;;6.90;2.03;;;;;;;-145.18;100.00;46758.06;6152410;23;20393;-68
2023/03/30 02:33:46;;;;;;;6.87;1.50;;;;;;;-145.18;100.00;46752.19;6152318;23;20072;-68
2023/03/30 02:36:39;;;;;;;3.57;1.40;;;;;;;-145.18;100.00;46732.66;6145200;23;20031;-68
2023/03/30 02:39:28;;;;;;;5.17;1.50;;;;;;;-145.18;100.00;46697.50;6141474;23;20311;-68
2023/03/30 02:42:02;;;;;;;8.40;1.67;;;;;;;-145.18;100.00;46685.78;6152106;23;20010;-68
2023/03/30 02:45:05;;;;;;;6.17;1.10;;;;;;;-145.18;100.00;46658.44;6152661;23;20025;-68
2023/03/30 02:47:43;;;;;;;7.23;1.70;;;;;;;-145.18;100.00;46619.38;6152101;23;20084;-71
2023/03/30 02:50:21;;;;;;;3.43;1.30;;;;;;;-145.18;100.00;46658.44;6152984;23;20088;-71
2023/03/30 02:52:57;;;;;;;4.40;1.20;;;;;;;-145.18;100.00;46636.94;6152002;23;20002;-70
2023/03/30 02:55:23;;;;;;;9.23;1.47;;;;;;;-145.18;100.00;46635.00;6151038;23;20028;-70
2023/03/30 02:58:23;;;;;;;3.77;1.40;;;;;;;-145.18;100.00;46638.91;6151952;23;20435;-70
2023/03/30 03:01:08;;;;;;;6.10;1.43;;;;;;;-145.18;100.00;46640.88;6152194;23;20013;-70
2023/03/30 03:03:47;;;;;;;3.10;1.10;;;;;;;-145.18;100.00;46636.94;6122754;23;20028;-69
2023/03/30 03:06:14;;;;;;;4.83;1.30;;;;;;;-145.18;100.00;46636.94;6123179;23;20006;-69
2023/03/30 03:08:42;;;;;;;9.07;1.87;;;;;;;-145.18;100.00;46635.00;6122683;23;20512;-69
2023/03/30 03:11:08;;;;;;;7.37;1.23;;;;;;;-145.18;100.00;46633.06;6123085;23;20010;-69
2023/03/30 03:13:38;;;;;;;3.83;1.33;;;;;;;-145.18;100.00;46633.06;6122906;23;20084;-69
2023/03/30 03:16:05;;;;;;;4.70;1.23;;;;;;;-145.18;100.00;46636.94;6122851;23;20085;-69
2023/03/30 03:18:31;;;;;;;4.23;1.10;;;;;;;-145.18;100.00;46640.88;6121470;23;20033;-69
2023/03/30 03:20:57;;;;;;;6.37;1.27;;;;;;;-145.18;100.00;46636.94;6122854;23;20064;-68
2023/03/30 03:23:23;;;;;;;4.77;1.20;;;;;;;-145.18;100.00;46636.94;6122551;23;20037;-68
2023/03/30 03:25:48;;;;;;;7.20;1.60;;;;;;;-145.18;100.00;46635.00;6123508;23;20432;-69
2023/03/30 03:28:14;;;;;;;8.90;1.73;;;;;;;-145.18;100.00;46636.94;6124754;23;20382;-68
2023/03/30 03:30:39;;;;;;;7.13;1.30;;;;;;;-145.18;100.00;46633.06;6124671;23;20010;-69
2023/03/30 03:33:05;;;;;;;7.10;1.30;;;;;;;-145.18;100.00;46642.81;6124647;23;20025;-70
2023/03/30 03:35:30;;;;;;;10.47;2.20;;;;;;;-145.18;100.00;46658.44;6124978;23;20014;-68
2023/03/30 03:37:56;;;;;;;6.20;1.40;;;;;;;-145.18;100.00;46660.41;6124367;23;20014;-68
2023/03/30 03:40:22;;;;;;;4.87;1.23;;;;;;;-145.18;100.00;46660.41;6125247;23;20018;-68
2023/03/30 03:42:47;;;;;;;4.77;1.57;;;;;;;-145.18;100.00;46652.59;6124424;23;20308;-68
2023/03/30 03:45:13;;;;;;;5.93;1.27;;;;;;;-145.18;100.00;46664.31;6124929;23;20018;-68
2023/03/30 03:47:38;;;;;;;4.50;1.13;;;;;;;-145.18;100.00;46664.31;6124422;23;20009;-68
2023/03/30 03:50:08;;;;;;;6.40;1.60;;;;;;;-145.18;100.00;46672.13;6124596;23;20559;-68
2023/03/30 03:52:33;;;;;;;8.63;1.80;;;;;;;-145.18;100.00;46676.03;6124365;23;20002;-68
2023/03/30 03:54:59;;;;;;;3.53;1.47;;;;;;;-145.18;100.00;46676.03;6124541;23;20186;-68
2023/03/30 03:57:24;;;;;;;6.17;1.20;;;;;;;-145.18;100.00;46674.06;6124351;23;20019;-68
2023/03/30 03:59:51;;;;;;;6.00;1.40;;;;;;;-145.18;100.00;46654.53;6124507;23;20343;-68
2023/03/30 04:02:17;;;;;;;6.77;1.20;;;;;;;-145.18;100.00;46660.41;6124061;23;20022;-68
2023/03/30 04:04:43;;;;;;;6.50;1.47;;;;;;;-145.18;100.00;46660.41;6124482;23;20143;-68
2023/03/30 04:07:08;;;;;;;10.30;1.80;;;;;;;-145.18;100.00;46640.88;6124175;23;20435;-68
2023/03/30 04:09:33;;;;;;;4.53;1.43;;;;;;;-145.18;100.00;46640.88;6124491;23;20010;-68
2023/03/30 04:11:59;;;;;;;6.17;1.47;;;;;;;-145.18;100.00;46636.94;6124015;23;20010;-68
2023/03/30 04:14:24;;;;;;;12.23;2.13;;;;;;;-145.18;100.00;46633.06;6124527;23;20482;-68
2023/03/30 04:16:50;;;;;;;7.57;1.50;;;;;;;-145.18;100.00;46633.06;6123936;23;20040;-68
2023/03/30 04:19:16;;;;;;;8.03;2.27;;;;;;;-145.18;100.00;46635.00;6124461;23;20073;-68
2023/03/30 04:21:45;;;;;;;5.37;1.90;;;;;;;-145.18;100.00;46636.94;6123940;23;20009;-68
2023/03/30 04:24:12;;;;;;;7.90;1.50;;;;;;;-145.18;100.00;46638.91;6123033;23;20338;-68
2023/03/30 04:26:37;;;;;;;7.50;1.80;;;;;;;-145.18;100.00;46654.53;6124281;23;20014;-68
2023/03/30 04:29:05;;;;;;;8.00;1.67;;;;;;;-145.18;100.00;46681.88;6123934;23;20093;-69
2023/03/30 04:31:34;;;;;;;10.87;2.50;;;;;;;-145.18;100.00;46689.69;6124640;23;20014;-68
2023/03/30 04:34:01;;;;;;;6.07;1.70;;;;;;;-145.18;100.00;46715.09;6123396;23;20016;-68
2023/03/30 04:36:27;;;;;;;12.33;2.37;;;;;;;-145.18;100.00;46722.91;6124706;23;20006;-68
2023/03/30 04:38:59;;;;;;;9.43;2.40;;;;;;;-145.18;100.00;46719.00;6123459;23;20077;-71
2023/03/30 04:41:34;;;;;;;9.90;2.20;;;;;;;-145.18;100.00;46719.00;6124264;23;20049;-71
2023/03/30 04:44:05;;;;;;;9.27;2.67;;;;;;;-145.18;100.00;46717.03;6124031;23;20057;-70
2023/03/30 04:46:30;;;;;;;8.93;2.33;;;;;;;-145.18;100.00;46715.09;6123983;23;20382;-70
2023/03/30 04:48:56;;;;;;;12.73;2.60;;;;;;;-145.18;100.00;46709.22;6123743;23;20093;-70
2023/03/30 04:51:21;;;;;;;12.77;2.20;;;;;;;-145.18;100.00;46713.13;6124150;23;20010;-70
2023/03/30 04:53:47;;;;;;;14.73;2.87;;;;;;;-145.18;100.00;46711.19;6124052;23;20037;-70
2023/03/30 04:56:12;;;;;;;6.13;2.30;;;;;;;-145.18;100.00;46711.19;6123624;23;20016;-70
2023/03/30 04:58:38;;;;;;;9.93;2.03;;;;;;;-145.18;100.00;46709.22;6122580;23;20093;-70
2023/03/30 05:01:03;;;;;;;6.70;2.10;;;;;;;-145.18;100.00;46705.31;6122823;23;20006;-69
2023/03/30 05:03:29;;;;;;;10.70;2.43;;;;;;;-145.18;100.00;46703.38;6123365;23;20025;-70
2023/03/30 05:05:55;;;;;;;9.67;2.50;;;;;;;-145.18;100.00;46709.22;6123536;23;20070;-69
2023/03/30 05:08:21;;;;;;;11.13;3.27;;;;;;;-145.18;100.00;46701.41;6123540;23;20087;-69
2023/03/30 05:10:47;;;;;;;12.10;2.30;;;;;;;-145.18;100.00;46707.28;6122387;23;20017;-69
2023/03/30 05:13:12;;;;;;;7.63;2.30;;;;;;;-145.18;100.00;46697.50;6122408;23;20478;-69
2023/03/30 05:15:38;;;;;;;11.03;2.50;;;;;;;-145.18;100.00;46707.28;6122263;23;20435;-69
2023/03/30 05:18:04;;;;;;;11.70;2.40;;;;;;;-145.18;100.00;46695.56;6121691;23;20025;-69
2023/03/30 05:20:30;;;;;;;9.13;2.43;;;;;;;-145.18;100.00;46701.41;6122057;23;20006;-69
2023/03/30 05:22:55;;;;;;;13.73;2.77;;;;;;;-145.18;100.00;46707.28;6121629;23;20465;-69
2023/03/30 05:25:20;;;;;;;9.73;2.40;;;;;;;-145.18;100.00;46697.50;6122041;23;20324;-69
2023/03/30 05:27:46;;;;;;;10.30;2.20;;;;;;;-145.18;100.00;46691.66;6121737;23;20020;-69
2023/03/30 05:30:12;;;;;;;9.30;2.43;;;;;;;-145.18;100.00;46701.41;6122138;23;20081;-69
2023/03/30 05:32:37;;;;;;;12.10;2.60;;;;;;;-145.18;100.00;46695.56;6122039;23;20033;-69
2023/03/30 05:35:03;;;;;;;11.97;2.50;;;;;;;-145.18;100.00;46693.59;6121959;23;20224;-69
2023/03/30 05:37:28;;;;;;;18.70;2.87;;;;;;;-145.18;100.00;46701.41;6122062;23;20089;-69
2023/03/30 05:39:54;;;;;;;14.27;3.03;;;;;;;-145.18;100.00;46699.47;6121668;23;20068;-69
2023/03/30 05:42:20;;;;;;;20.33;3.20;;;;;;;-145.18;100.00;46709.22;6122036;23;20088;-69
2023/03/30 05:44:45;;;;;;;12.13;2.83;;;;;;;-145.18;100.00;46707.28;6122021;23;20018;-69
2023/03/30 05:47:11;;;;;;;18.70;3.57;;;;;;;-145.18;100.00;46711.19;6120618;23;20024;-69
2023/03/30 05:49:36;;;;;;;10.70;2.90;;;;;;;-145.18;100.00;46703.38;6121983;23;20009;-69
2023/03/30 05:52:02;;;;;;;19.60;3.30;;;;;;;-145.18;100.00;46711.19;6123019;23;20359;-69
2023/03/30 05:54:27;;;;;;;16.17;3.07;;;;;;;-145.18;100.00;46709.22;6123418;23;20044;-69
2023/03/30 05:56:53;;;;;;;16.73;4.03;;;;;;;-145.18;100.00;46707.28;6121808;23;20006;-69
2023/03/30 05:59:20;;;;;;;16.83;3.10;;;;;;;-145.18;100.00;46709.22;6121736;23;20014;-69
2023/03/30 06:01:46;;;;;;;18.77;3.00;;;;;;;-145.18;100.00;46707.28;6122987;23;20014;-69
2023/03/30 06:04:11;;;;;;;17.30;4.17;;;;;;;-145.18;100.00;46707.28;6123127;23;20013;-68
2023/03/30 06:06:36;;;;;;;15.03;3.30;;;;;;;-145.18;100.00;46707.28;6123236;23;20020;-69
2023/03/30 06:09:03;;;;;;;20.90;3.63;;;;;;;-145.18;100.00;46703.38;6123051;23;20010;-69
2023/03/30 06:11:30;;;;;;;22.70;3.53;;;;;;;-145.18;100.00;46705.31;6123334;23;20006;-69
2023/03/30 06:13:56;;;;;;;18.73;3.93;;;;;;;-145.18;100.00;46711.19;6123112;23;20006;-69
2023/03/30 06:16:21;;;;;;;18.53;3.70;;;;;;;-145.18;100.00;46707.28;6123546;23;20013;-69
2023/03/30 06:18:47;;;;;;;18.43;4.60;;;;;;;-145.18;100.00;46711.19;6122577;23;20010;-69
2023/03/30 06:21:12;;;;;;;15.83;4.13;;;;;;;-145.18;100.00;46709.22;6122470;23;20010;-69
2023/03/30 06:23:39;;;;;;;20.70;4.93;;;;;;;-145.18;100.00;46711.19;6120630;23;20041;-69
2023/03/30 06:26:06;;;;;;;23.20;4.70;;;;;;;-145.18;100.00;46711.19;6123120;23;20013;-69
2023/03/30 06:28:32;;;;;;;16.63;3.60;;;;;;;-145.18;100.00;46709.22;6123026;23;20002;-69
2023/03/30 06:31:00;;;;;;;19.67;4.73;;;;;;;-145.18;100.00;46713.13;6123051;23;20006;-68
2023/03/30 06:33:26;;;;;;;14.40;3.83;;;;;;;-145.18;100.00;46709.22;6123232;23;20012;-69
2023/03/30 06:35:53;;;;;;;18.00;3.97;;;;;;;-145.18;100.00;46705.31;6123284;23;20006;-69
2023/03/30 06:38:20;;;;;;;25.67;4.10;;;;;;;-145.18;100.00;46697.50;6121091;23;20028;-69
2023/03/30 06:40:46;;;;;;;15.23;3.50;;;;;;;-145.18;100.00;46699.47;6123306;23;20005;-69
2023/03/30 06:43:17;;;;;;;16.37;3.17;;;;;;;-145.18;100.00;46699.47;6123152;23;20037;-69
2023/03/30 06:45:48;;;;;;;20.17;3.20;;;;;;;-145.18;100.00;46695.56;6122655;23;20010;-69
2023/03/30 06:48:13;;;;;;;15.73;3.43;;;;;;;-145.18;100.00;46695.56;6123007;23;20014;-69
2023/03/30 06:50:39;;;;;;;15.60;2.97;;;;;;;-145.18;100.00;46689.69;6122990;23;20448;-69
2023/03/30 06:53:04;;;;;;;13.87;2.27;;;;;;;-145.18;100.00;46674.06;6122382;23;20080;-69
2023/03/30 06:55:30;;;;;;;17.80;3.50;;;;;;;-145.18;100.00;46670.16;6123150;23;20017;-69
2023/03/30 06:57:55;;;;;;;14.83;2.43;;;;;;;-145.18;100.00;46648.69;6122374;23;20065;-69
2023/03/30 07:00:21;;;;;;;11.70;2.53;;;;;;;-145.18;100.00;46615.47;6122985;23;20452;-68
2023/03/30 07:02:46;;;;;;;11.20;2.33;;;;;;;-145.18;100.00;46592.03;6121835;23;20100;-69
2023/03/30 07:05:14;;;;;;;15.37;2.40;;;;;;;-145.18;100.00;46580.31;6122916;23;20180;-68
2023/03/30 07:07:40;;;;;;;15.10;2.03;;;;;;;-145.18;100.00;46570.53;6122513;23;20440;-69
2023/03/30 07:10:09;;;;;;;17.40;2.43;;;;;;;-145.18;100.00;46578.34;6122681;23;20017;-68
2023/03/30 07:12:35;;;;;;;19.60;3.13;;;;;;;-145.18;100.00;46572.50;6123079;23;20076;-68
2023/03/30 07:15:01;;;;;;;18.97;2.37;;;;;;;-145.18;100.00;46574.44;6122625;23;20420;-68
2023/03/30 07:17:26;;;;;;;15.13;2.07;;;;;;;-145.18;100.00;46576.41;6122901;23;20066;-68
2023/03/30 07:19:52;;;;;;;17.90;2.93;;;;;;;-145.18;100.00;46576.41;6122738;23;20018;-68
2023/03/30 07:22:17;;;;;;;16.27;2.40;;;;;;;-145.18;100.00;46578.34;6122990;23;20077;-68
2023/03/30 07:24:43;;;;;;;21.07;2.77;;;;;;;-145.18;100.00;46582.25;6122332;23;20075;-69
2023/03/30 07:27:09;;;;;;;13.30;2.57;;;;;;;-145.18;100.00;46578.34;6122700;23;20009;-68
2023/03/30 07:29:35;;;;;;;16.33;3.13;;;;;;;-145.18;100.00;46580.31;6122761;23;20006;-68
2023/03/30 07:32:02;;;;;;;19.13;3.17;;;;;;;-145.18;100.00;46588.13;6122632;23;20006;-68
2023/03/30 07:34:27;;;;;;;27.80;3.40;;;;;;;-145.18;100.00;46588.13;6122497;23;20006;-68
2023/03/30 07:36:53;;;;;;;17.37;2.50;;;;;;;-145.18;100.00;46595.94;6122577;23;20010;-68
2023/03/30 07:39:18;;;;;;;19.40;3.50;;;;;;;-145.18;100.00;46609.59;6122471;23;20014;-68
2023/03/30 07:41:44;;;;;;;22.20;3.37;;;;;;;-145.18;100.00;46601.78;6122699;23;20005;-68
2023/03/30 07:44:10;;;;;;;27.07;2.90;;;;;;;-145.18;100.00;46599.84;6122828;23;20045;-68
2023/03/30 07:46:35;;;;;;;22.07;2.80;;;;;;;-145.18;100.00;46592.03;6122784;23;20450;-68
2023/03/30 07:49:00;;;;;;;27.27;4.60;;;;;;;-145.18;100.00;46588.13;6122493;23;20450;-68
2023/03/30 07:51:26;;;;;;;27.30;3.67;;;;;;;-145.18;100.00;46588.13;6121134;23;20352;-68
2023/03/30 07:53:51;;;;;;;16.47;3.33;;;;;;;-145.18;100.00;46588.13;6122531;23;20323;-69
2023/03/30 07:56:17;;;;;;;25.97;4.13;;;;;;;-145.18;100.00;46593.97;6122784;23;20138;-68
2023/03/30 07:58:42;;;;;;;23.37;3.47;;;;;;;-145.18;100.00;46593.97;6122393;23;20017;-68
2023/03/30 08:01:08;;;;;;;15.77;3.87;;;;;;;-145.18;100.00;46588.13;6122622;23;20014;-68
2023/03/30 08:03:33;;;;;;;23.73;3.50;;;;;;;-145.18;100.00;46595.94;6122286;23;20049;-68
2023/03/30 08:06:05;;;;;;;20.83;3.77;;;;;;;-145.18;100.00;46593.97;6122769;23;20018;-68
2023/03/30 08:08:32;;;;;;;22.83;3.43;;;;;;;-145.18;100.00;46601.78;6122464;23;20002;-68
2023/03/30 08:10:58;;;;;;;23.37;3.10;;;;;;;-145.18;100.00;46597.88;6122618;23;20037;-68
2023/03/30 08:13:23;;;;;;;24.50;4.20;;;;;;;-145.18;100.00;46601.78;6123533;23;20021;-68
2023/03/30 08:15:49;;;;;;;25.57;4.23;;;;;;;-145.18;100.00;46601.78;6124356;23;20017;-68
2023/03/30 08:18:15;;;;;;;25.63;3.97;;;;;;;-145.18;100.00;46603.75;6124386;23;20026;-68
2023/03/30 08:20:41;;;;;;;21.27;3.53;;;;;;;-145.18;100.00;46603.75;6124396;23;20049;-68
2023/03/30 08:23:10;;;;;;;27.43;4.67;;;;;;;-145.18;100.00;46588.13;6124006;23;20006;-68
2023/03/30 08:25:37;;;;;;;31.43;5.37;;;;;;;-145.18;100.00;46588.13;6124281;23;20613;-68
2023/03/30 08:28:04;;;;;;;26.60;4.07;;;;;;;-145.18;100.00;46588.13;6123752;23;20029;-68
2023/03/30 08:30:30;;;;;;;34.87;4.60;;;;;;;-145.18;100.00;46584.22;6124402;23;20010;-67
2023/03/30 08:32:56;;;;;;;24.93;4.87;;;;;;;-145.18;100.00;46572.50;6123891;23;20634;-68
2023/03/30 08:35:22;;;;;;;33.00;4.77;;;;;;;-145.18;100.00;46570.53;6124285;23;20011;-68
2023/03/30 08:37:49;;;;;;;19.50;4.37;;;;;;;-145.18;100.00;46578.34;6123812;23;20417;-68
2023/03/30 08:40:15;;;;;;;24.13;3.70;;;;;;;-145.18;100.00;46588.13;6124095;23;20068;-68
2023/03/30 08:42:56;;;;;;;30.70;4.23;;;;;;;-145.18;100.00;46586.16;6122816;23;20677;-68
2023/03/30 08:45:21;;;;;;;26.73;4.37;;;;;;;-145.18;100.00;46590.06;6124086;23;20006;-68
2023/03/30 08:47:51;;;;;;;21.90;3.93;;;;;;;-145.18;100.00;46588.13;6123449;23;20010;-68
2023/03/30 08:50:34;;;;;;;19.80;4.23;;;;;;;-145.18;100.00;46603.75;6123835;23;20692;-68
2023/03/30 08:53:01;;;;;;;25.97;4.67;;;;;;;-145.18;100.00;46603.75;6123648;23;20006;-68
2023/03/30 08:55:33;;;;;;;28.97;4.77;;;;;;;-145.18;100.00;46615.47;6124064;23;20040;-68
2023/03/30 08:58:17;;;;;;;29.97;4.77;;;;;;;-145.18;100.00;46619.38;6123506;23;20009;-68
2023/03/30 09:00:52;;;;;;;24.93;4.77;;;;;;;-145.18;100.00;46615.47;6122446;23;20010;-68
2023/03/30 09:03:27;;;;;;;22.67;4.07;;;;;;;-145.18;100.00;46617.41;6123329;23;20109;-68
2023/03/30 09:06:04;;;;;;;25.90;5.27;;;;;;;-145.18;100.00;46623.28;6123896;23;20343;-68
2023/03/30 09:08:32;;;;;;;26.60;4.60;;;;;;;-145.18;100.00;46623.28;6123500;23;20403;-68
2023/03/30 09:10:59;;;;;;;26.53;4.97;;;;;;;-145.18;100.00;46615.47;6123771;23;20321;-68
2023/03/30 09:13:31;;;;;;;30.40;4.30;;;;;;;-145.18;100.00;46631.09;6123972;23;20317;-68
2023/03/30 09:16:03;;;;;;;21.93;4.47;;;;;;;-145.18;100.00;46627.19;6123578;23;20002;-68
2023/03/30 09:18:34;;;;;;;26.97;4.30;;;;;;;-145.18;100.00;46648.69;6123859;23;20009;-68
2023/03/30 09:21:02;;;;;;;30.60;4.47;;;;;;;-145.18;100.00;46664.31;6123706;23;20033;-68
2023/03/30 09:23:30;;;;;;;18.30;3.87;;;;;;;-145.18;100.00;46664.31;6123437;23;20006;-68
2023/03/30 09:26:14;;;;;;;32.17;4.83;;;;;;;-145.18;100.00;46676.03;6123601;23;20388;-68
2023/03/30 09:28:40;;;;;;;28.23;4.77;;;;;;;-145.18;100.00;46695.56;6123758;23;20077;-68
2023/03/30 09:31:38;;;;;;;29.40;4.80;;;;;;;-145.18;100.00;46697.50;6123598;23;20130;-68
2023/03/30 09:34:34;;;;;;;21.83;3.90;;;;;;;-145.18;100.00;46707.28;6123051;23;20002;-68
2023/03/30 09:37:04;;;;;;;22.98;4.50;;;;;;;-145.18;100.00;46685.78;6123419;23;20006;-68
2023/03/30 09:39:32;;;;;;;24.83;4.53;;;;;;;-145.18;100.00;46685.78;6123324;23;20006;-68
2023/03/30 09:42:13;;;;;;;30.77;5.60;;;;;;;-145.18;100.00;46756.09;6123325;23;20010;-68
2023/03/30 09:45:08;;;;;;;30.63;5.27;;;;;;;-145.18;100.00;46742.44;6123153;23;20014;-68
2023/03/30 09:47:37;;;;;;;35.40;7.10;;;;;;;-145.18;100.00;46734.63;6112023;23;20097;-68
2023/03/30 09:50:11;;;;;;;31.77;5.77;;;;;;;-145.18;100.00;46720.94;6122858;23;20010;-68
2023/03/30 09:52:40;;;;;;;30.20;4.63;;;;;;;-145.18;100.00;46724.84;6123413;23;20002;-68
2023/03/30 09:55:32;;;;;;;38.87;5.50;;;;;;;-145.18;100.00;46722.91;6123221;23;20017;-68
2023/03/30 09:58:17;;;;;;;29.37;4.70;;;;;;;-145.18;100.00;46713.13;6123398;23;20006;-68
2023/03/30 10:00:43;;;;;;;32.30;4.65;;;;;;;-145.18;100.00;46681.88;6123956;23;20006;-68
2023/03/30 10:03:19;;;;;;;33.00;4.87;;;;;;;-145.18;100.00;46719.00;6122955;23;20014;-68
2023/03/30 10:05:59;;;;;;;30.30;4.93;;;;;;;-145.18;100.00;46724.84;6123804;23;20013;-68
2023/03/30 10:08:24;;;;;;;33.73;6.00;;;;;;;-145.18;100.00;46695.56;6122888;23;20085;-68
2023/03/30 10:10:55;;;;;;;24.60;5.63;;;;;;;-145.18;100.00;46691.66;6123212;23;20032;-67
2023/03/30 10:13:31;;;;;;;31.63;5.53;;;;;;;-145.18;100.00;46687.75;6123098;23;20125;-68
2023/03/30 10:16:03;;;;;;;40.47;5.57;;;;;;;-145.18;100.00;46677.97;6123163;23;20028;-68
2023/03/30 10:18:44;;;;;;;23.57;4.67;;;;;;;-145.18;100.00;46711.19;6122957;23;20077;-68
2023/03/30 10:21:13;;;;;;;25.33;5.90;;;;;;;-145.18;100.00;46701.41;6123094;23;20519;-68
2023/03/30 10:23:41;;;;;;;33.90;5.60;;;;;;;-145.18;100.00;46699.47;6122906;23;20006;-68
2023/03/30 10:26:17;;;;;;;23.77;4.83;;;;;;;-145.18;100.00;46777.59;6122921;23;20515;-68
2023/03/30 10:28:55;;;;;;;30.37;5.40;;;;;;;-145.18;100.00;46775.66;6122753;23;20586;-68
2023/03/30 10:31:24;;;;;;;28.80;5.23;;;;;;;-145.18;100.00;46719.00;6123627;23;20383;-68
2023/03/30 10:33:55;;;;;;;21.77;4.20;;;;;;;-145.18;100.00;46769.78;6122649;23;20009;-68
2023/03/30 10:36:23;;;;;;;25.57;5.97;;;;;;;-145.18;100.00;46715.09;6122840;23;20012;-68
2023/03/30 10:38:48;;;;;;;30.83;5.53;;;;;;;-145.18;100.00;46765.88;6122796;23;20010;-68
2023/03/30 10:41:19;;;;;;;25.70;4.10;;;;;;;-145.18;100.00;46742.44;6121035;23;20021;-68
2023/03/30 10:43:48;;;;;;;26.73;4.07;;;;;;;-145.18;100.00;46767.84;6122234;23;20084;-68
2023/03/30 10:46:17;;;;;;;22.77;4.07;;;;;;;-145.18;100.00;46801.03;6120507;23;20065;-68
2023/03/30 10:48:58;;;;;;;29.97;3.97;;;;;;;-145.18;100.00;46812.75;6121384;23;20030;-68
2023/03/30 10:51:40;;;;;;;24.63;3.67;;;;;;;-145.18;100.00;46758.06;6123074;23;20076;-68
2023/03/30 10:54:17;;;;;;;28.97;4.30;;;;;;;-145.18;100.00;47027.63;6122591;23;20361;-68
2023/03/30 10:56:53;;;;;;;28.87;4.90;;;;;;;-145.18;100.00;47277.69;6122872;23;20352;-68
2023/03/30 11:00:00;;;;;;;26.80;4.43;;;;;;;-145.18;100.00;47402.72;6121904;23;20037;-68
2023/03/30 11:02:43;;;;;;;22.17;4.75;;;;;;;-145.18;100.00;47416.41;6105546;23;20025;-68
2023/03/30 11:05:17;;;;;;;28.00;4.53;;;;;;;-145.18;100.00;47453.53;6122622;23;20009;-68
2023/03/30 11:07:48;;;;;;;19.17;3.73;;;;;;;-145.18;100.00;47449.63;6122595;23;20017;-68
2023/03/30 11:10:28;;;;;;;24.43;4.50;;;;;;;-145.18;100.00;47336.31;6122682;23;20014;-68
2023/03/30 11:13:37;;;;;;;22.10;4.50;;;;;;;-145.18;100.00;47219.09;6122203;23;20006;-68
2023/03/30 11:16:15;;;;;;;27.80;5.10;;;;;;;-145.18;100.00;47035.44;6109675;23;20069;-68
2023/03/30 11:18:45;;;;;;;26.73;5.17;;;;;;;-145.18;100.00;47086.25;6122560;23;20090;-67
2023/03/30 11:21:23;;;;;;;20.03;4.60;;;;;;;-145.18;100.00;47328.50;6122740;23;20308;-67